Frenchton, West Virginia
Current Conditions -  °F | °C
As of 11:15 AM on Sunday 25 Jan 2015 (Local Time) from KW22 Reporting Station
Clear Clear  
Wind Chill: 34°   Ceiling: Unl
Heat Index: 37°   Visibility: 9mi
Dew Point: 32°   Wind: 5mph
Humidity: 81%   Direction: 180°S
Pressure: 29.8"   Gusts: NA
Location:  38.87°N, 80.36°W
Report Text: KW22 251615Z AUTO 18004KT 9SM CLR 03/00 A2980 RMK AO2
Loading
Personal Weather Stations






























Interactive Weather Map New forecast layout! Learn more

10-Day Weather Forecast

Advertisements
Track Severe Weather on mobile